TOURFACTS.DK  
Stats and Facts from Tour de France.

Tour de France 2019 starts in 347 days
  Riders   Stages   Teams   Summits   Yearly  


 
Search by year

After 2018 - Stage 14:
 15000 starters.
  5163 different riders.
  639 teams.
  2246 stages.
  456 restdays.
  441957.60 km.
  5678 abandonnees.


Top 3
GC
Christopher Froome86:20:55
Rigoberto Urán86:21:49
Romain Bardet86:23:15
Climb
Warren Barguil169 pt.
Primoz Roglic80 pt.
Thomas De Gendt64 pt.
Sprint
Michael Matthews359 pt.
André Greipel234 pt.
Edvald Boasson Hagen220 pt.
Youth
Simon Yates86:27:09
Louis Meintjes86:29:15
Emanuel Buchmann86:54:16
Facts from Tour de France 1974
  |   Stages.  |   Stage winners.  |   Days in yellow  |   Average speed.  |   Route.  |   Teams.  |   All riders.  |   Rookies.  |  

  |   Withdrawls.  |   GC.  |   Polka  |   Green  |   White  |   Summits. (In tour)  |   Miscellaneous.  |  

Stage 6b on July 3rd. 1974
         Owning:    Gerben Karstens    
Pick a stage:  Pro 1 2 3 4 5 6a 6b 7 8a 8b 9 10 11 12 13 14 15 16 17 18 19a 19b 20 21a 21b 22
From: Harelbeke    To: HarelbekeDist:9.00 km.

Average speed for all riders in stage:  46,910 km./hr.
    Place:Name:Team:Time:Km/h:
BELEddy MerckxITAMolteni00:10:54  +  00:00:00=49,541 
BELJoseph BruyereITAMolteni00:10:54  +  00:00:00=49,541 
BELLudo DelcroixITAMolteni00:10:54  +  00:00:00=49,541 
4 BELJos De SchoenmaeckerITAMolteni00:10:54  +  00:00:00=49,541 
5 BELJoseph HuysmansITAMolteni00:10:54  +  00:00:00=49,541 
6 BELEduard JanssensITAMolteni00:10:54  +  00:00:00=49,541 
7 BELMarc LievensITAMolteni00:10:54  +  00:00:00=49,541 
8 BELFrans MintjensITAMolteni00:10:54  +  00:00:00=49,541 
9 BELJoseph SpruytITAMolteni00:10:54  +  00:00:00=49,541 
10 BELVictor Van SchilITAMolteni00:10:54  +  00:00:00=49,541 
11 ESPMiguel LasaESPKas-Kaskol00:11:09  +  00:00:15=48,430 
12 ESPGonzalo AjaESPKas-Kaskol00:11:09  +  00:00:15=48,430 
13 ESPFrancisco GaldosESPKas-Kaskol00:11:09  +  00:00:15=48,430 
14 ESPVicente LopezESPKas-Kaskol00:11:09  +  00:00:15=48,430 
15 COLAntonio MartosESPKas-Kaskol00:11:09  +  00:00:15=48,430 
16 ESPCarlos MeleroESPKas-Kaskol00:11:09  +  00:00:15=48,430 
17 ESPAntonio MenendezESPKas-Kaskol00:11:09  +  00:00:15=48,430 
18 ESPDomingo PerurenaESPKas-Kaskol00:11:09  +  00:00:15=48,430 
19 ESPJosé PesarrodonaESPKas-Kaskol00:11:09  +  00:00:15=48,430 
20 ESPLuis ZuberoESPKas-Kaskol00:11:09  +  00:00:15=48,430 
21 PORJoaquim AgostinhoFRABic00:11:11  +  00:00:17=48,286 
22 FRARoland BerlandFRABic00:11:11  +  00:00:17=48,286 
23 FRAJosé CatieauFRABic00:11:11  +  00:00:17=48,286 
24 FRABernard CroyetFRABic00:11:11  +  00:00:17=48,286 
25 NEDGerben KarstensFRABic00:11:11  +  00:00:17=48,286 
26 FRABernard LabourdetteFRABic00:11:11  +  00:00:17=48,286 
27 FRAJean-Luc MolinerisFRABic00:11:11  +  00:00:17=48,286 
28 DENLeif MortensenFRABic00:11:11  +  00:00:17=48,286 
29 FRAAlain VasseurFRABic00:11:11  +  00:00:17=48,286 
30 FRASylvain VasseurFRABic00:11:11  +  00:00:17=48,286 
31 BELHerman Van SpringelBELMic-De Gribaldy-Ludo00:11:13  +  00:00:19=48,143 
32 BELDirk BaertBELMic-De Gribaldy-Ludo00:11:13  +  00:00:19=48,143 
33 BELEric LemanBELMic-De Gribaldy-Ludo00:11:13  +  00:00:19=48,143 
34 PORHerculano FerreiraBELMic-De Gribaldy-Ludo00:11:13  +  00:00:19=48,143 
35 BELGeorges PintensBELMic-De Gribaldy-Ludo00:11:13  +  00:00:19=48,143 
36 BELNoël VancloosterBELMic-De Gribaldy-Ludo00:11:13  +  00:00:19=48,143 
37 BELJan Van De WieleBELMic-De Gribaldy-Ludo00:11:13  +  00:00:19=48,143 
38 BELRonny VanmarckeBELMic-De Gribaldy-Ludo00:11:13  +  00:00:19=48,143 
39 BELGustaaf Van RoosbroeckBELMic-De Gribaldy-Ludo00:11:13  +  00:00:19=48,143 
40 BELWilfried WesemaelBELMic-De Gribaldy-Ludo00:11:13  +  00:00:19=48,143 
41 BELRonald De WitteBELCarpenter Confortluxe-Flandria00:11:18  +  00:00:24=47,788 
42 BELEddy CaelBELCarpenter Confortluxe-Flandria00:11:18  +  00:00:24=47,788 
43 BELWilfried DavidBELCarpenter Confortluxe-Flandria00:11:18  +  00:00:24=47,788 
44 BELMarc DemeyerBELCarpenter Confortluxe-Flandria00:11:18  +  00:00:24=47,788 
45 BELMichel PollentierBELCarpenter Confortluxe-Flandria00:11:18  +  00:00:24=47,788 
46 BELArthur Van de VyverBELCarpenter Confortluxe-Flandria00:11:18  +  00:00:24=47,788 
47 BELFrans Van LooyBELCarpenter Confortluxe-Flandria00:11:18  +  00:00:24=47,788 
48 BELDaniel VerplanckeBELCarpenter Confortluxe-Flandria00:11:18  +  00:00:24=47,788 
49 BELRoger VerschaeveBELCarpenter Confortluxe-Flandria00:11:18  +  00:00:24=47,788 
50 FRARaymond PoulidorFRAGan-Mercier-Hutchinson00:11:24  +  00:00:30=47,368 
51 NEDCees BalFRAGan-Mercier-Hutchinson00:11:24  +  00:00:30=47,368 
52 FRAJean-Pierre GenetFRAGan-Mercier-Hutchinson00:11:24  +  00:00:30=47,368 
53 ENGBarry HobanFRAGan-Mercier-Hutchinson00:11:24  +  00:00:30=47,368 
54 NEDGerrie KnetemannFRAGan-Mercier-Hutchinson00:11:24  +  00:00:30=47,368 
55 FRAJacky MouriouxFRAGan-Mercier-Hutchinson00:11:24  +  00:00:30=47,368 
56 FRAMichel PerinFRAGan-Mercier-Hutchinson00:11:24  +  00:00:30=47,368 
57 FRAChristian RaymondFRAGan-Mercier-Hutchinson00:11:24  +  00:00:30=47,368 
58 FRAAlain SantyFRAGan-Mercier-Hutchinson00:11:24  +  00:00:30=47,368 
59 NEDGerard VianenFRAGan-Mercier-Hutchinson00:11:24  +  00:00:30=47,368 
60 ITAWladimiro PanizzaITABrooklyn00:11:29  +  00:00:35=47,025 
61 ITAGiancarlo BelliniITABrooklyn00:11:29  +  00:00:35=47,025 
62 ITAFausto BertoglioITABrooklyn00:11:29  +  00:00:35=47,025 
63 ITAGianni Di LorenzoITABrooklyn00:11:29  +  00:00:35=47,025 
64 ITAErcole GualazziniITABrooklyn00:11:29  +  00:00:35=47,025 
65 ITAValerio LualdiITABrooklyn00:11:29  +  00:00:35=47,025 
66 ITAAldo ParecchiniITABrooklyn00:11:29  +  00:00:35=47,025 
67 ITAArturo PecchielanITABrooklyn00:11:29  +  00:00:35=47,025 
68 ITAAttilio RotaITABrooklyn00:11:29  +  00:00:35=47,025 
69 BELPatrick SercuITABrooklyn00:11:29  +  00:00:35=47,025 
70 NEDFedor Iwan Den HertogNLDFrisol-Flair Plastics00:11:40  +  00:00:46=46,286 
71 ITALorenzo AlaimoNLDFrisol-Flair Plastics00:11:40  +  00:00:46=46,286 
72 AUSDonald AllanNLDFrisol-Flair Plastics00:11:40  +  00:00:46=46,286 
73 NEDWil De VlamNLDFrisol-Flair Plastics00:11:40  +  00:00:46=46,286 
74 NEDAlbert HulzeboschNLDFrisol-Flair Plastics00:11:40  +  00:00:46=46,286 
75 NEDHenk PoppeNLDFrisol-Flair Plastics00:11:40  +  00:00:46=46,286 
76 NEDHenk PrinsenNLDFrisol-Flair Plastics00:11:40  +  00:00:46=46,286 
77 NEDWim PrinsenNLDFrisol-Flair Plastics00:11:40  +  00:00:46=46,286 
78 NEDPiet Van KatwijkNLDFrisol-Flair Plastics00:11:40  +  00:00:46=46,286 
79 BELLucien Van ImpeFRASonolor-Gitanes00:11:42  +  00:00:48=46,154 
80 FRAJacques BotherelFRASonolor-Gitanes00:11:42  +  00:00:48=46,154 
81 FRAFerdinand JulienFRASonolor-Gitanes00:11:42  +  00:00:48=46,154 
82 ESPMariano MartinezFRASonolor-Gitanes00:11:42  +  00:00:48=46,154 
83 FRARobert MintkiewiczFRASonolor-Gitanes00:11:42  +  00:00:48=46,154 
84 FRAAlain NoguesFRASonolor-Gitanes00:11:42  +  00:00:48=46,154 
85 BELWilly TeirlinckFRASonolor-Gitanes00:11:42  +  00:00:48=46,154 
86 FRAClaude TolletFRASonolor-Gitanes00:11:42  +  00:00:48=46,154 
87 BELWilly Van NesteFRASonolor-Gitanes00:11:42  +  00:00:48=46,154 
88 ENGMichael WrightFRASonolor-Gitanes00:11:42  +  00:00:48=46,154 
89 FRABernard ThevenetFRAPeugeot-BP-Michelin00:11:46  +  00:00:52=45,892 
90 FRABernard BourreauFRAPeugeot-BP-Michelin00:11:46  +  00:00:52=45,892 
91 FRAJean-Pierre DanguillaumeFRAPeugeot-BP-Michelin00:11:46  +  00:00:52=45,892 
92 FRARaymond DelisleFRAPeugeot-BP-Michelin00:11:46  +  00:00:52=45,892 
93 FRAJacques EsclassanFRAPeugeot-BP-Michelin00:11:46  +  00:00:52=45,892 
94 FRAAndré MolletFRAPeugeot-BP-Michelin00:11:46  +  00:00:52=45,892 
95 FRARégis OvionFRAPeugeot-BP-Michelin00:11:46  +  00:00:52=45,892 
96 FRARaymond RiotteFRAPeugeot-BP-Michelin00:11:46  +  00:00:52=45,892 
97 FRACharly RouxelFRAPeugeot-BP-Michelin00:11:46  +  00:00:52=45,892 
98 FRAGuy SibilleFRAPeugeot-BP-Michelin00:11:46  +  00:00:52=45,892 
99 FRARoger PingeonFRAJobo-Lejeune00:11:52  +  00:00:58=45,506 
100 FRAChristian BlainFRAJobo-Lejeune00:11:52  +  00:00:58=45,506 
101 FRAJean-Claude BlocherFRAJobo-Lejeune00:11:52  +  00:00:58=45,506 
102 FRAFrancis CampanerFRAJobo-Lejeune00:11:52  +  00:00:58=45,506 
103 FRAAlain CiganaFRAJobo-Lejeune00:11:52  +  00:00:58=45,506 
104 FRADaniel DucreuxFRAJobo-Lejeune00:11:52  +  00:00:58=45,506 
105 FRAJean-Pierre GuillemotFRAJobo-Lejeune00:11:52  +  00:00:58=45,506 
106 FRAClaude MagniFRAJobo-Lejeune00:11:52  +  00:00:58=45,506 
107 FRABernard MassonFRAJobo-Lejeune00:11:52  +  00:00:58=45,506 
108 ESPAndré RomeroFRAJobo-Lejeune00:11:52  +  00:00:58=45,506 
109 FRACyrille GuimardFRAMerlin Plage-Flandria00:11:59  +  00:01:05=45,063 
110 FRAMichel CorollerFRAMerlin Plage-Flandria00:11:59  +  00:01:05=45,063 
111 FRARegis DelepineFRAMerlin Plage-Flandria00:11:59  +  00:01:05=45,063 
112 BELAndré DierickxFRAMerlin Plage-Flandria00:11:59  +  00:01:05=45,063 
113 FRAJoël MillardFRAMerlin Plage-Flandria00:11:59  +  00:01:05=45,063 
114 FRAJean-Claude MisacFRAMerlin Plage-Flandria00:11:59  +  00:01:05=45,063 
115 FRAGerard MoneyronFRAMerlin Plage-Flandria00:11:59  +  00:01:05=45,063 
116 FRADaniel RebillardFRAMerlin Plage-Flandria00:11:59  +  00:01:05=45,063 
117 FRAJean-Jacques SanquerFRAMerlin Plage-Flandria00:11:59  +  00:01:05=45,063 
118 BELGhislain Van LandeghemFRAMerlin Plage-Flandria00:11:59  +  00:01:05=45,063 
119 ESPJesus ManzanequeESPLa Casera-Peña Bahamontes00:12:05  +  00:01:11=44,690 
120 ESPJosé AbilleiraESPLa Casera-Peña Bahamontes00:12:05  +  00:01:11=44,690 
121 ESPJesus EsperanzaESPLa Casera-Peña Bahamontes00:12:05  +  00:01:11=44,690 
122 ESPFelix GonzalezESPLa Casera-Peña Bahamontes00:12:05  +  00:01:11=44,690 
123 ESPAndrês OlivaESPLa Casera-Peña Bahamontes00:12:05  +  00:01:11=44,690 
124 ESPFernando PlazaESPLa Casera-Peña Bahamontes00:12:05  +  00:01:11=44,690 
125 ESPDamaso TorresESPLa Casera-Peña Bahamontes00:12:05  +  00:01:11=44,690 
126 ESPAntonio Vallori MateuESPLa Casera-Peña Bahamontes00:12:05  +  00:01:11=44,690 
127 ESPJuan ZuranoESPLa Casera-Peña Bahamontes00:12:05  +  00:01:11=44,690 


Todays birthdays.

1887  Donald Kirkham
1889  Théodore Abada
1911  Guillaume Chavard
1912  Jean Fontenay
1913  Fabien Galateau
1930  Roger Hassenforder
1930  Richard Van Genechten
1936  Philippe Gaudrillet
1937  Joseph Novales
1954  Hans-Peter Jakst
1960  Manuel Ramos
1973  David Etxebarria
1974  Rik Verbrugghe
1976  Jörg Jaksche




Visits: